Time;durP1;ratioP1;P1;durP2;ratioP2;P2;SDS_P1;SDS_P2;PMS_P1;PMS_P2;Temp;Humidity;BMP_temperature;BMP_pressure;BME280_temperature;BME280_humidity;BME280_pressure;Samples;Min_cycle;Max_cycle;Signal;HPM_P1;HPM_P2
2022/07/11 00:02:03;;;;;;;;;5.00;5.00;;;;;24.83;46.21;102013.34;5051479;28;45363;-67
2022/07/11 00:04:29;;;;;;;;;4.00;4.00;;;;;24.77;46.88;102024.44;5043224;28;45663;-67
2022/07/11 00:06:55;;;;;;;;;4.33;4.33;;;;;24.75;46.64;102027.47;5028624;28;45377;-67
2022/07/11 00:09:20;;;;;;;;;6.00;5.67;;;;;24.80;47.44;102016.56;5041501;28;45264;-67
2022/07/11 00:11:45;;;;;;;;;4.33;4.33;;;;;24.76;47.13;102025.53;5043857;28;45173;-67
2022/07/11 00:14:11;;;;;;;;;4.33;3.67;;;;;24.77;47.10;102018.88;5048585;28;45298;-67
2022/07/11 00:16:36;;;;;;;;;4.00;4.00;;;;;24.71;47.04;102019.72;5044170;28;46509;-67
2022/07/11 00:19:01;;;;;;;;;6.00;5.00;;;;;24.65;47.05;102026.13;5047465;28;45513;-67
2022/07/11 00:21:27;;;;;;;;;4.00;4.00;;;;;24.66;47.65;102028.72;5025229;28;45249;-67
2022/07/11 00:23:52;;;;;;;;;6.00;6.00;;;;;24.64;47.19;102025.28;5035933;28;45360;-67
2022/07/11 00:26:17;;;;;;;;;4.00;4.00;;;;;24.69;46.88;102019.94;5046731;28;47046;-67
2022/07/11 00:28:43;;;;;;;;;4.33;4.33;;;;;24.59;47.49;102026.97;5031445;28;45591;-67
2022/07/11 00:31:09;;;;;;;;;4.67;4.67;;;;;24.53;47.90;102028.69;5042867;28;45488;-67
2022/07/11 00:33:34;;;;;;;;;5.00;5.00;;;;;24.41;48.40;102024.78;5053287;28;45612;-67
2022/07/11 00:36:00;;;;;;;;;4.00;4.00;;;;;24.42;48.03;102027.34;5042364;28;46507;-67
2022/07/11 00:38:25;;;;;;;;;4.00;4.00;;;;;24.39;48.39;102015.81;5052181;28;45410;-67
2022/07/11 00:40:50;;;;;;;;;6.00;3.67;;;;;24.40;49.20;102023.09;5040382;28;45558;-67
2022/07/11 00:43:19;;;;;;;;;4.00;4.00;;;;;24.36;48.97;102021.78;5049614;28;45259;-67
2022/07/11 00:45:47;;;;;;;;;6.67;5.33;;;;;24.27;49.14;102015.53;5045429;28;45541;-67
2022/07/11 00:48:13;;;;;;;;;5.00;5.00;;;;;24.31;48.83;102013.22;5055346;28;45541;-67
2022/07/11 00:50:38;;;;;;;;;3.33;3.33;;;;;24.33;48.46;102013.84;5044176;28;45224;-67
2022/07/11 00:53:04;;;;;;;;;5.33;5.00;;;;;24.30;49.23;102006.81;5045248;28;45944;-67
2022/07/11 00:55:29;;;;;;;;;3.00;3.00;;;;;24.32;48.18;102006.59;5043859;28;46643;-67
2022/07/11 00:57:55;;;;;;;;;3.33;3.33;;;;;24.31;48.73;102008.53;5045454;28;45303;-67
2022/07/11 01:00:20;;;;;;;;;4.33;4.33;;;;;24.23;49.62;102000.38;5041037;28;45359;-67
2022/07/11 01:02:46;;;;;;;;;4.00;4.00;;;;;24.17;49.02;101995.63;5059259;28;45442;-67
2022/07/11 01:05:11;;;;;;;;;6.67;4.00;;;;;24.08;50.15;102002.41;5033491;28;47673;-67
2022/07/11 01:07:38;;;;;;;;;4.00;4.00;;;;;24.08;49.53;101999.63;5054196;28;45389;-67
2022/07/11 01:10:04;;;;;;;;;2.00;2.00;;;;;24.09;50.22;101997.72;5050248;28;45436;-67
2022/07/11 01:12:31;;;;;;;;;4.00;4.00;;;;;24.07;49.65;102003.47;5044229;28;45564;-67
2022/07/11 01:15:00;;;;;;;;;4.00;4.00;;;;;24.04;49.67;102010.28;5043594;28;45234;-67
2022/07/11 01:17:25;;;;;;;;;4.67;4.67;;;;;24.08;49.50;102007.09;5043074;28;45503;-67
2022/07/11 01:19:50;;;;;;;;;4.00;4.00;;;;;24.10;49.55;102005.00;5042239;28;45508;-67
2022/07/11 01:22:20;;;;;;;;;5.00;5.00;;;;;24.11;49.84;102001.97;5043438;28;45311;-67
2022/07/11 01:24:46;;;;;;;;;4.00;4.00;;;;;23.99;50.00;101993.41;5052732;28;46950;-67
2022/07/11 01:27:12;;;;;;;;;5.67;5.00;;;;;23.96;50.66;101993.81;5031381;28;45340;-67
2022/07/11 01:29:38;;;;;;;;;7.67;6.33;;;;;23.97;49.96;102003.00;5050339;28;45202;-67
2022/07/11 01:32:04;;;;;;;;;3.00;3.00;;;;;23.91;50.05;102013.00;5042245;28;45307;-67
2022/07/11 01:34:30;;;;;;;;;4.00;4.00;;;;;23.94;50.22;102009.81;5049478;28;45239;-67
2022/07/11 01:36:55;;;;;;;;;3.00;3.00;;;;;23.96;50.25;102002.13;5054758;28;45337;-67
2022/07/11 01:39:20;;;;;;;;;5.00;5.00;;;;;23.94;50.29;102007.06;5046051;28;45324;-67
2022/07/11 01:41:46;;;;;;;;;5.00;5.00;;;;;23.83;50.31;102004.84;5025596;28;45901;-67
2022/07/11 01:44:11;;;;;;;;;5.00;3.00;;;;;23.74;51.07;102000.53;5050710;28;45349;-69
2022/07/11 01:46:36;;;;;;;;;5.00;4.00;;;;;23.72;51.44;102004.56;5030054;28;52192;-68
2022/07/11 01:49:02;;;;;;;;;3.00;3.00;;;;;23.67;51.64;102005.16;5051841;28;45441;-68
2022/07/11 01:51:28;;;;;;;;;4.67;3.00;;;;;23.68;50.97;102004.13;5062572;28;46406;-67
2022/07/11 01:53:55;;;;;;;;;4.33;4.33;;;;;23.73;51.27;102004.38;5060327;28;46354;-65
2022/07/11 01:56:23;;;;;;;;;5.00;5.00;;;;;23.58;51.82;101989.78;5047460;28;45351;-67
2022/07/11 01:58:49;;;;;;;;;4.00;4.00;;;;;23.62;51.44;101996.59;5053300;28;45452;-67
2022/07/11 02:01:15;;;;;;;;;5.00;5.00;;;;;23.54;52.50;101999.53;5039272;28;45378;-67
2022/07/11 02:03:40;;;;;;;;;4.00;4.00;;;;;23.57;52.20;102000.00;5056139;28;46188;-68
2022/07/11 02:06:06;;;;;;;;;4.00;4.00;;;;;23.58;51.92;102007.28;5047656;28;45462;-65
2022/07/11 02:08:31;;;;;;;;;3.00;3.00;;;;;23.53;51.93;102003.38;5058403;28;45442;-66
2022/07/11 02:10:56;;;;;;;;;4.00;4.00;;;;;23.40;52.87;102006.03;5042769;28;45339;-67
2022/07/11 02:13:23;;;;;;;;;2.33;2.33;;;;;23.29;52.70;102001.91;5049526;28;45430;-67
2022/07/11 02:15:50;;;;;;;;;5.00;4.00;;;;;23.35;52.75;102012.19;5037174;28;45435;-67
2022/07/11 02:18:17;;;;;;;;;3.00;3.00;;;;;23.38;52.82;102002.63;5049632;28;45453;-67
2022/07/11 02:20:45;;;;;;;;;4.00;4.00;;;;;23.29;53.35;102002.78;5039283;28;45343;-68
2022/07/11 02:23:12;;;;;;;;;3.00;3.00;;;;;23.32;53.08;101997.84;5058272;28;46081;-67
2022/07/11 02:25:40;;;;;;;;;4.00;4.00;;;;;23.32;52.87;102004.25;5057056;28;45718;-67
2022/07/11 02:28:09;;;;;;;;;4.33;4.33;;;;;23.32;51.75;101989.53;5046075;28;45315;-67
2022/07/11 02:30:36;;;;;;;;;3.33;3.00;;;;;23.30;52.75;101998.91;5043984;28;45404;-67
2022/07/11 02:33:01;;;;;;;;;3.33;3.33;;;;;23.28;53.13;101991.88;5044753;28;46540;-67
2022/07/11 02:35:27;;;;;;;;;5.00;5.00;;;;;23.21;53.10;101997.38;5059232;28;45332;-67
2022/07/11 02:37:52;;;;;;;;;3.33;3.33;;;;;23.22;53.23;102001.88;5055978;28;45311;-67
2022/07/11 02:40:18;;;;;;;;;4.67;4.67;;;;;23.18;53.38;102006.06;5048779;28;45306;-67
2022/07/11 02:42:43;;;;;;;;;6.33;6.33;;;;;23.21;52.49;101989.06;5048343;28;45578;-67
2022/07/11 02:45:09;;;;;;;;;4.00;4.00;;;;;23.26;51.94;101986.53;5050622;28;45308;-67
2022/07/11 02:47:38;;;;;;;;;5.67;5.00;;;;;23.16;53.50;101991.56;5045371;28;45497;-67
2022/07/11 02:50:04;;;;;;;;;4.00;4.00;;;;;23.05;54.11;102002.34;5046736;28;45224;-69
2022/07/11 02:52:29;;;;;;;;;4.33;4.33;;;;;22.92;54.94;101994.78;5045354;28;46236;-67
2022/07/11 02:54:55;;;;;;;;;6.00;6.00;;;;;22.84;55.02;101998.53;5043962;28;45338;-67
2022/07/11 02:57:20;;;;;;;;;8.00;7.33;;;;;22.71;55.60;102006.69;5045972;28;45447;-67
2022/07/11 02:59:45;;;;;;;;;13.33;12.33;;;;;22.65;56.24;101998.28;5045254;28;45353;-67
2022/07/11 03:02:11;;;;;;;;;10.33;10.33;;;;;22.64;55.49;101996.59;5050235;28;46293;-67
2022/07/11 03:04:36;;;;;;;;;12.33;12.00;;;;;22.70;54.51;101991.13;5043965;28;45307;-67
2022/07/11 03:07:01;;;;;;;;;12.67;11.67;;;;;22.71;55.72;101986.44;5042983;28;45440;-67
2022/07/11 03:09:27;;;;;;;;;15.33;14.00;;;;;22.69;56.30;101983.00;5044786;28;45412;-67
2022/07/11 03:11:52;;;;;;;;;13.67;12.33;;;;;22.65;56.31;101988.06;5044044;28;45380;-67
2022/07/11 03:14:18;;;;;;;;;11.00;11.00;;;;;22.63;56.30;101995.75;5048905;28;45364;-67
2022/07/11 03:16:43;;;;;;;;;14.00;12.67;;;;;22.50;56.82;101993.66;5061288;28;45403;-67
2022/07/11 03:19:09;;;;;;;;;13.00;12.67;;;;;22.48;56.75;101981.94;5059733;28;45385;-67
2022/07/11 03:21:34;;;;;;;;;15.33;15.00;;;;;22.45;57.80;101987.00;5043752;28;45303;-66
2022/07/11 03:23:59;;;;;;;;;15.33;13.67;;;;;22.33;58.28;101988.59;5050368;28;45444;-66
2022/07/11 03:26:25;;;;;;;;;15.00;13.33;;;;;22.27;58.24;101995.78;5044881;28;45347;-66
2022/07/11 03:28:51;;;;;;;;;12.67;11.67;;;;;22.36;57.43;101994.56;5038185;28;45565;-66
2022/07/11 03:31:16;;;;;;;;;12.33;12.33;;;;;22.32;57.67;101996.03;5048252;28;45423;-67
2022/07/11 03:33:42;;;;;;;;;11.67;10.67;;;;;22.38;56.68;101989.69;5056457;28;45211;-66
2022/07/11 03:36:07;;;;;;;;;12.67;11.00;;;;;22.44;55.79;101997.22;5043547;28;45960;-66
2022/07/11 03:38:33;;;;;;;;;10.00;9.67;;;;;22.45;56.86;101993.41;5052516;28;46532;-66
2022/07/11 03:40:58;;;;;;;;;11.00;11.00;;;;;22.50;56.54;101993.66;5043260;28;45378;-66
2022/07/11 03:43:23;;;;;;;;;9.67;8.33;;;;;22.46;56.47;101995.13;5052757;28;45350;-66
2022/07/11 03:45:49;;;;;;;;;14.67;12.00;;;;;22.42;56.96;101991.03;5043668;28;45484;-67
2022/07/11 03:48:15;;;;;;;;;13.33;11.33;;;;;22.50;56.23;101995.59;5053654;28;45397;-67
2022/07/11 03:50:40;;;;;;;;;45.00;36.00;;;;;22.51;56.40;101991.75;5033096;28;46690;-66
2022/07/11 03:53:06;;;;;;;;;13.67;11.67;;;;;22.44;56.81;101988.91;5056365;28;45505;-67
2022/07/11 03:55:32;;;;;;;;;8.00;8.00;;;;;22.44;56.54;101988.91;5055910;28;45853;-67
2022/07/11 03:57:57;;;;;;;;;9.00;9.00;;;;;22.36;57.22;101989.03;5060535;28;45448;-67
2022/07/11 04:00:23;;;;;;;;;9.00;7.33;;;;;22.42;57.54;101992.97;5044345;28;46603;-66
2022/07/11 04:02:48;;;;;;;;;7.00;6.33;;;;;22.39;56.86;101999.72;5052820;28;45440;-67
2022/07/11 04:05:14;;;;;;;;;9.67;9.33;;;;;22.36;57.08;101989.03;5048006;28;45470;-69
2022/07/11 04:07:40;;;;;;;;;12.00;8.33;;;;;22.36;57.66;101989.03;5047017;28;45765;-66
2022/07/11 04:10:06;;;;;;;;;10.67;9.67;;;;;22.30;58.12;101986.19;5046750;28;45517;-66
2022/07/11 04:12:32;;;;;;;;;9.00;9.00;;;;;22.27;58.38;101993.00;5044782;28;45252;-66
2022/07/11 04:14:57;;;;;;;;;9.00;8.00;;;;;22.25;58.62;101989.56;5037913;28;45241;-67
2022/07/11 04:17:22;;;;;;;;;9.67;8.33;;;;;22.35;57.97;102000.34;5043440;28;45206;-67
2022/07/11 04:19:48;;;;;;;;;9.67;9.67;;;;;22.40;58.01;101984.84;5034212;28;47534;-67
2022/07/11 04:22:13;;;;;;;;;14.33;10.00;;;;;22.43;57.77;101995.50;5062038;28;45429;-66
2022/07/11 04:24:39;;;;;;;;;8.33;8.33;;;;;22.45;57.66;101992.53;5048424;28;45253;-66
2022/07/11 04:27:05;;;;;;;;;10.67;8.00;;;;;22.58;56.73;101997.34;5039829;28;45260;-66
2022/07/11 04:29:30;;;;;;;;;7.00;7.00;;;;;22.62;56.13;101999.56;5033790;28;46380;-66
2022/07/11 04:31:55;;;;;;;;;13.67;13.67;;;;;22.51;57.06;101998.16;5042773;28;45422;-66
2022/07/11 04:34:21;;;;;;;;;6.67;6.67;;;;;22.55;57.17;102006.09;5055175;28;45451;-66
2022/07/11 04:36:46;;;;;;;;;9.00;7.67;;;;;22.65;56.67;102009.38;5036705;28;45447;-66
2022/07/11 04:39:12;;;;;;;;;6.67;6.67;;;;;22.75;55.92;102021.03;5054652;28;45930;-66
2022/07/11 04:41:37;;;;;;;;;9.00;8.00;;;;;22.80;55.71;102018.50;5042688;28;44813;-66
2022/07/11 04:44:03;;;;;;;;;7.00;7.00;;;;;22.88;55.55;102015.59;5049535;28;46417;-66
2022/07/11 04:46:29;;;;;;;;;5.67;5.67;;;;;22.96;55.43;102015.47;5042866;28;45396;-68
2022/07/11 04:48:54;;;;;;;;;9.33;8.67;;;;;23.08;54.94;102018.59;5044575;28;46043;-67
2022/07/11 04:51:20;;;;;;;;;10.33;8.67;;;;;23.08;55.52;102015.81;5040705;28;45592;-67
2022/07/11 04:53:46;;;;;;;;;8.67;7.00;;;;;23.11;55.09;102019.03;5056587;28;46172;-67
2022/07/11 04:56:11;;;;;;;;;9.67;9.67;;;;;23.14;54.81;102009.47;5053347;28;45609;-67
2022/07/11 04:58:37;;;;;;;;;6.67;6.00;;;;;23.23;54.75;102024.91;5052237;28;45426;-67
2022/07/11 05:01:02;;;;;;;;;5.00;5.00;;;;;23.29;54.02;102019.41;5042299;28;45291;-67
2022/07/11 05:03:28;;;;;;;;;9.00;9.00;;;;;23.37;54.56;102018.41;5039954;28;45404;-67
2022/07/11 05:05:54;;;;;;;;;8.67;7.00;;;;;23.29;54.77;102011.09;5049330;28;45647;-67
2022/07/11 05:08:20;;;;;;;;;8.00;8.00;;;;;23.42;54.63;102020.56;5049352;28;46528;-66
2022/07/11 05:10:46;;;;;;;;;8.67;7.33;;;;;23.46;54.24;102024.63;5050001;28;45407;-66
2022/07/11 05:13:11;;;;;;;;;5.67;5.67;;;;;23.42;54.49;102020.56;5045081;28;45343;-66
2022/07/11 05:15:38;;;;;;;;;7.00;6.67;;;;;23.56;54.01;102016.84;5043308;28;45452;-67
2022/07/11 05:18:03;;;;;;;;;7.00;7.00;;;;;23.59;54.42;102025.63;5049818;28;45441;-67
2022/07/11 05:20:29;;;;;;;;;7.67;7.00;;;;;23.67;53.69;102030.13;5035191;28;45450;-68
2022/07/11 05:22:55;;;;;;;;;8.67;7.00;;;;;23.78;52.96;102029.59;5028787;28;45412;-67
2022/07/11 05:25:20;;;;;;;;;7.00;7.00;;;;;23.75;53.38;102018.03;5051781;28;45248;-67
2022/07/11 05:27:45;;;;;;;;;10.67;9.00;;;;;23.88;52.45;102023.69;5056178;28;46078;-67
2022/07/11 05:30:11;;;;;;;;;11.33;9.00;;;;;24.03;51.74;102029.94;5029986;28;45472;-67
2022/07/11 05:32:36;;;;;;;;;6.67;6.67;;;;;24.12;52.25;102038.94;5044224;28;45192;-67
2022/07/11 05:35:03;;;;;;;;;10.00;7.67;;;;;24.21;51.92;102037.75;5048947;28;45516;-67
2022/07/11 05:37:29;;;;;;;;;6.67;5.00;;;;;24.32;51.82;102043.56;5031714;28;46595;-68
2022/07/11 05:39:54;;;;;;;;;9.00;7.67;;;;;24.34;51.75;102040.56;5053790;28;45252;-68
2022/07/11 05:42:19;;;;;;;;;6.00;6.00;;;;;24.56;50.82;102047.69;5056362;28;45407;-68
2022/07/11 05:44:45;;;;;;;;;6.67;6.00;;;;;24.74;50.75;102042.41;5043234;28;45242;-66
2022/07/11 05:47:10;;;;;;;;;7.67;7.67;;;;;24.93;50.03;102042.69;5057424;28;45458;-67
2022/07/11 05:49:36;;;;;;;;;6.00;6.00;;;;;24.94;50.01;102041.63;5054181;28;45321;-68
2022/07/11 05:52:01;;;;;;;;;6.00;6.00;;;;;25.06;49.26;102037.13;5044559;28;45388;-67
2022/07/11 05:54:28;;;;;;;;;7.00;6.00;;;;;25.15;48.92;102035.84;5059610;28;45565;-66
2022/07/11 05:56:54;;;;;;;;;8.00;6.00;;;;;25.21;49.11;102038.63;5057625;28;45617;-67
2022/07/11 05:59:20;;;;;;;;;6.33;6.33;;;;;25.20;49.93;102036.09;5052619;28;45382;-67
2022/07/11 06:01:46;;;;;;;;;6.00;5.00;;;;;25.25;49.56;102041.88;5047609;28;45350;-68
2022/07/11 06:04:12;;;;;;;;;8.00;7.67;;;;;25.30;49.29;102042.06;5053032;28;45565;-66
2022/07/11 06:06:37;;;;;;;;;7.67;7.00;;;;;25.43;48.75;102036.50;5035394;28;48030;-67
2022/07/11 06:09:03;;;;;;;;;8.00;7.33;;;;;26.23;47.65;102038.03;5052149;28;45433;-66
2022/07/11 06:11:28;;;;;;;;;6.33;6.33;;;;;27.11;44.99;102033.50;5043328;28;45522;-67
2022/07/11 06:13:53;;;;;;;;;10.00;9.00;;;;;27.66;43.30;102038.41;5034088;28;45301;-68
2022/07/11 06:16:19;;;;;;;;;7.00;7.00;;;;;27.48;43.33;102041.97;5050027;28;46305;-66
2022/07/11 06:18:45;;;;;;;;;5.33;5.33;;;;;27.09;44.60;102038.47;5056503;28;45441;-66
2022/07/11 06:21:11;;;;;;;;;7.00;7.00;;;;;26.93;45.21;102044.59;5045184;28;45423;-66
2022/07/11 06:23:36;;;;;;;;;5.00;5.00;;;;;26.78;45.26;102034.78;5048721;28;45418;-66
2022/07/11 06:26:03;;;;;;;;;5.33;5.33;;;;;26.73;45.17;102032.69;5058884;28;45690;-67
2022/07/11 06:28:29;;;;;;;;;8.00;6.33;;;;;26.63;45.92;102043.47;5045236;28;45673;-67
2022/07/11 06:30:54;;;;;;;;;8.67;5.00;;;;;26.66;45.71;102043.03;5052503;28;45454;-67
2022/07/11 06:33:20;;;;;;;;;5.33;5.33;;;;;26.67;45.47;102039.13;5047133;28;45372;-67
2022/07/11 06:35:47;;;;;;;;;5.00;5.00;;;;;26.78;45.64;102038.44;5029622;28;47793;-67
2022/07/11 06:38:13;;;;;;;;;9.00;6.00;;;;;26.85;45.61;102036.47;5044758;28;45514;-66
2022/07/11 06:40:40;;;;;;;;;7.00;7.00;;;;;26.85;45.83;102038.41;5060601;28;45335;-67
2022/07/11 06:43:06;;;;;;;;;5.00;5.00;;;;;26.90;45.08;102042.25;5041662;28;45383;-68
2022/07/11 06:45:32;;;;;;;;;5.33;4.33;;;;;26.98;44.89;102033.59;5036058;28;47184;-67
2022/07/11 06:47:57;;;;;;;;;8.00;6.33;;;;;26.95;45.04;102033.22;5052249;28;45595;-68
2022/07/11 06:50:22;;;;;;;;;8.00;5.67;;;;;26.99;45.38;102032.53;5047271;28;45402;-68
2022/07/11 06:52:48;;;;;;;;;5.33;5.33;;;;;26.97;44.97;102031.03;5032248;28;45458;-68
2022/07/11 06:55:14;;;;;;;;;8.00;6.00;;;;;27.05;44.67;102037.19;5047560;28;45462;-68
2022/07/11 06:57:39;;;;;;;;;8.67;5.33;;;;;27.17;44.32;102022.53;5060632;28;45334;-67
2022/07/11 07:00:07;;;;;;;;;5.67;4.33;;;;;27.30;43.94;102030.78;5047326;28;45267;-67
2022/07/11 07:02:32;;;;;;;;;8.67;5.67;;;;;27.40;44.06;102033.91;5052196;28;45217;-67
2022/07/11 07:04:58;;;;;;;;;7.00;7.00;;;;;27.47;42.93;102026.31;5046013;28;46155;-67
2022/07/11 07:07:27;;;;;;;;;5.00;5.00;;;;;27.46;43.02;102035.78;5043167;28;45496;-67
2022/07/11 07:09:53;;;;;;;;;4.00;4.00;;;;;27.49;43.00;102036.19;5049664;28;45374;-66
2022/07/11 07:12:19;;;;;;;;;4.67;4.33;;;;;27.64;42.50;102029.41;5039336;28;45437;-67
2022/07/11 07:14:45;;;;;;;;;6.33;5.33;;;;;27.73;41.84;102026.09;5045262;28;46036;-67
2022/07/11 07:17:10;;;;;;;;;4.00;4.00;;;;;27.75;41.48;102026.72;5056383;28;45276;-67
2022/07/11 07:19:35;;;;;;;;;4.67;4.67;;;;;27.83;41.19;102034.78;5050674;28;45312;-67
2022/07/11 07:22:01;;;;;;;;;5.00;4.00;;;;;27.78;41.04;102040.22;5042662;28;45212;-67
2022/07/11 07:24:26;;;;;;;;;5.67;5.67;;;;;27.68;41.89;102034.31;5054696;28;45702;-68
2022/07/11 07:26:52;;;;;;;;;4.00;4.00;;;;;27.89;41.40;102030.22;5053276;28;45281;-67
2022/07/11 07:29:17;;;;;;;;;4.00;4.00;;;;;27.80;41.38;102024.09;5050337;28;45271;-69
2022/07/11 07:31:43;;;;;;;;;4.33;3.00;;;;;27.87;40.85;102044.41;5042897;28;45342;-66
2022/07/11 07:34:09;;;;;;;;;5.67;4.67;;;;;27.92;40.57;102031.69;5052627;28;45249;-67
2022/07/11 07:36:35;;;;;;;;;4.00;4.00;;;;;27.66;41.14;102033.69;5043487;28;45193;-68
2022/07/11 07:39:00;;;;;;;;;5.00;4.00;;;;;27.70;41.05;102034.91;5045792;28;45410;-66
2022/07/11 07:41:27;;;;;;;;;5.00;5.00;;;;;27.92;40.83;102038.13;5042571;28;45392;-69
2022/07/11 07:43:52;;;;;;;;;6.00;5.33;;;;;28.12;40.64;102035.13;5046020;28;46160;-67
2022/07/11 07:46:18;;;;;;;;;4.33;4.33;;;;;28.19;40.15;102033.13;5056500;28;45398;-66
2022/07/11 07:48:43;;;;;;;;;6.00;4.00;;;;;28.02;40.15;102038.44;5048520;28;45384;-66
2022/07/11 07:51:09;;;;;;;;;3.00;3.00;;;;;28.18;40.04;102042.59;5042721;28;45469;-66
2022/07/11 07:53:35;;;;;;;;;6.67;5.67;;;;;28.31;40.03;102038.78;5049073;28;48156;-66
2022/07/11 07:56:00;;;;;;;;;4.00;4.00;;;;;28.53;39.09;102029.66;5060554;28;45451;-66
2022/07/11 07:58:26;;;;;;;;;4.67;4.67;;;;;28.64;38.69;102031.63;5055141;28;46570;-67
2022/07/11 08:03:35;;;;;;;;;3.00;3.00;;;;;28.86;38.59;102036.72;5054527;28;45415;-68
2022/07/11 08:06:00;;;;;;;;;4.00;3.67;;;;;28.91;38.92;102036.88;5029385;28;45532;-67
2022/07/11 08:08:26;;;;;;;;;4.67;4.00;;;;;28.87;38.00;102042.09;5046820;28;45327;-67
2022/07/11 08:10:52;;;;;;;;;2.33;2.33;;;;;28.95;38.30;102046.47;5047365;28;45366;-66
2022/07/11 08:13:18;;;;;;;;;5.00;3.67;;;;;29.01;38.34;102039.94;5055863;28;46577;-67
2022/07/11 08:15:43;;;;;;;;;5.00;4.00;;;;;29.07;37.96;102039.00;5041751;28;45406;-67
2022/07/11 08:18:08;;;;;;;;;3.33;3.33;;;;;29.22;37.38;102033.78;5048150;28;45234;-65
2022/07/11 08:20:34;;;;;;;;;4.33;4.33;;;;;29.32;37.60;102031.22;5048732;28;45152;-66
2022/07/11 08:23:00;;;;;;;;;3.00;3.00;;;;;29.31;37.15;102039.88;5044966;28;45370;-66
2022/07/11 08:25:25;;;;;;;;;5.00;5.00;;;;;29.25;37.38;102038.03;5059094;28;45414;-66
2022/07/11 08:27:51;;;;;;;;;4.00;4.00;;;;;29.30;37.32;102019.41;5047188;28;45393;-66
2022/07/11 08:30:16;;;;;;;;;5.00;3.67;;;;;29.36;37.56;102018.50;5048314;28;45443;-66
2022/07/11 08:32:41;;;;;;;;;3.00;3.00;;;;;29.31;37.30;102009.06;5040469;28;45643;-66
2022/07/11 08:35:07;;;;;;;;;3.67;3.67;;;;;29.28;37.86;101998.38;5050538;28;45324;-65
2022/07/11 08:37:33;;;;;;;;;4.33;4.33;;;;;29.40;37.16;102007.66;5054681;28;45445;-66
2022/07/11 08:39:58;;;;;;;;;4.00;4.00;;;;;29.47;37.17;102004.72;5050001;28;45382;-67
2022/07/11 08:42:29;;;;;;;;;1.00;1.00;;;;;29.54;36.95;101997.06;5042009;28;45567;-66
2022/07/11 08:44:56;;;;;;;;;3.00;3.00;;;;;29.64;37.07;102002.91;5049161;28;45398;-66
2022/07/11 08:47:23;;;;;;;;;1.67;1.67;;;;;29.65;36.87;101996.22;5043034;28;45305;-66
2022/07/11 08:49:49;;;;;;;;;3.00;3.00;;;;;29.21;37.28;101998.50;5048804;28;45568;-66
2022/07/11 08:52:16;;;;;;;;;5.00;5.00;;;;;29.40;37.67;101993.66;5042757;28;46360;-66
2022/07/11 08:54:42;;;;;;;;;3.67;3.67;;;;;29.62;36.45;101999.50;5048296;28;45445;-66
2022/07/11 08:57:08;;;;;;;;;4.67;4.00;;;;;29.76;36.80;102001.78;5045808;28;45219;-67
2022/07/11 08:59:35;;;;;;;;;4.00;3.33;;;;;29.93;36.25;101987.91;5035294;28;45520;-67
2022/07/11 09:02:03;;;;;;;;;4.33;4.33;;;;;30.19;35.95;101995.75;5050735;28;45453;-66
2022/07/11 09:04:30;;;;;;;;;3.33;3.33;;;;;29.83;36.06;101989.59;5046155;28;45443;-67
2022/07/11 09:06:56;;;;;;;;;5.33;4.00;;;;;30.01;36.96;101987.53;5045225;28;45331;-68
2022/07/11 09:09:21;;;;;;;;;4.67;4.67;;;;;30.08;35.43;101976.19;5057629;28;45319;-67
2022/07/11 09:11:55;;;;;;;;;4.00;4.00;;;;;30.27;35.75;101985.25;5045768;28;45374;-67
2022/07/11 09:14:24;;;;;;;;;3.00;3.00;;;;;30.61;35.45;101980.63;5050503;28;45631;-67
2022/07/11 09:17:08;;;;;;;;;5.00;5.00;;;;;30.78;34.42;101979.56;5047200;28;45355;-68
2022/07/11 09:19:39;;;;;;;;;2.67;2.67;;;;;31.05;34.50;101981.72;5058460;28;45545;-67
2022/07/11 09:28:05;;;;;;;;;3.00;2.67;;;;;31.43;34.38;101976.16;5050051;28;45300;-68
2022/07/11 09:30:31;;;;;;;;;4.33;4.00;;;;;31.56;33.78;101978.59;5045675;28;45592;-68
2022/07/11 09:32:58;;;;;;;;;2.67;2.67;;;;;31.47;33.63;101974.56;5050235;28;45319;-67
2022/07/11 09:35:25;;;;;;;;;2.67;2.33;;;;;31.48;32.97;101958.56;5037407;28;45727;-67
2022/07/11 09:37:51;;;;;;;;;4.00;4.00;;;;;31.66;33.18;101961.94;5049763;28;45776;-66
2022/07/11 09:40:17;;;;;;;;;2.00;2.00;;;;;31.88;32.92;101959.16;5050900;28;45527;-66
2022/07/11 09:42:54;;;;;;;;;2.00;2.00;;;;;31.98;32.22;101969.69;5049773;28;46046;-67
2022/07/11 09:45:21;;;;;;;;;2.00;2.00;;;;;31.81;32.44;101954.84;5052411;28;45465;-67
2022/07/11 09:47:48;;;;;;;;;3.67;3.67;;;;;31.79;32.41;101963.50;5048431;28;45415;-66
2022/07/11 09:50:28;;;;;;;;;3.00;3.00;;;;;31.37;32.93;101960.34;5053724;28;45413;-66
2022/07/11 09:53:08;;;;;;;;;2.67;2.67;;;;;31.34;33.43;101970.13;5061858;28;45665;-67
2022/07/11 09:55:38;;;;;;;;;3.67;3.67;;;;;31.63;33.10;101968.06;5054735;28;45390;-66
2022/07/11 09:58:13;;;;;;;;;3.67;3.67;;;;;32.34;32.76;101957.78;5063243;28;45398;-66
2022/07/11 10:00:39;;;;;;;;;5.00;3.67;;;;;32.87;31.48;101964.53;5037267;28;45672;-67
2022/07/11 10:03:06;;;;;;;;;3.67;3.00;;;;;33.08;30.33;101962.75;5055531;28;45758;-67
2022/07/11 10:05:32;;;;;;;;;2.67;2.67;;;;;33.29;30.42;101966.59;5040552;28;45402;-67
2022/07/11 10:07:58;;;;;;;;;3.00;3.00;;;;;33.50;30.64;101965.63;5049396;28;45410;-67
2022/07/11 10:10:26;;;;;;;;;2.00;2.00;;;;;33.51;29.70;101956.03;5054211;28;45224;-67
2022/07/11 10:12:52;;;;;;;;;4.00;3.00;;;;;33.83;29.50;101951.16;5048698;28;45490;-67
2022/07/11 10:15:32;;;;;;;;;3.00;3.00;;;;;33.97;29.67;101958.00;5047844;28;45306;-67
2022/07/11 10:18:00;;;;;;;;;3.00;3.00;;;;;34.22;28.82;101965.75;5047608;28;45173;-67
2022/07/11 10:20:52;;;;;;;;;4.00;4.00;;;;;33.90;29.12;101960.22;5054315;28;45567;-67
2022/07/11 10:23:57;;;;;;;;;5.00;5.00;;;;;32.94;30.56;101962.34;5045247;28;46390;-67
2022/07/11 10:26:42;;;;;;;;;4.00;4.00;;;;;33.03;30.32;101969.16;5043093;28;45350;-66
2022/07/11 10:29:36;;;;;;;;;2.00;2.00;;;;;33.60;29.57;101971.31;5059231;28;45619;-67
2022/07/11 10:32:04;;;;;;;;;3.00;3.00;;;;;33.01;29.79;101974.25;5039764;28;45564;-66
2022/07/11 10:34:30;;;;;;;;;3.00;3.00;;;;;32.74;30.10;101957.38;5055723;28;46152;-66
2022/07/11 10:37:03;;;;;;;;;5.00;4.00;;;;;32.73;30.09;101964.09;5051101;28;45434;-67
2022/07/11 10:39:29;;;;;;;;;5.00;5.00;;;;;32.73;30.66;101968.91;5054132;28;45455;-67
2022/07/11 10:41:59;;;;;;;;;2.67;2.67;;;;;33.47;29.96;101968.97;5051104;28;45264;-66
2022/07/11 10:44:27;;;;;;;;;5.33;5.33;;;;;34.13;28.07;101964.53;5051149;28;46379;-67
2022/07/11 10:46:53;;;;;;;;;3.00;3.00;;;;;34.13;28.83;101964.53;5043509;28;45320;-67
2022/07/11 10:49:36;;;;;;;;;5.00;3.00;;;;;34.66;28.08;101966.13;5042012;28;45494;-67
2022/07/11 10:52:06;;;;;;;;;2.67;2.67;;;;;35.32;27.22;101966.19;5054633;28;45268;-67
2022/07/11 10:54:58;;;;;;;;;3.00;3.00;;;;;35.42;25.89;101957.72;5049602;28;45428;-67
2022/07/11 10:58:01;;;;;;;;;3.00;3.00;;;;;35.52;26.79;101966.16;5062938;28;45711;-67
2022/07/11 11:00:28;;;;;;;;;3.00;3.00;;;;;35.14;26.20;101959.09;5022503;28;45536;-67
2022/07/11 11:02:59;;;;;;;;;3.00;3.00;;;;;35.27;27.59;101966.22;5053689;28;45725;-67
2022/07/11 11:05:49;;;;;;;;;2.00;1.00;;;;;35.66;26.82;101957.06;5047358;28;45456;-67
2022/07/11 11:08:30;;;;;;;;;1.67;1.67;;;;;36.10;25.58;101955.22;5030407;28;45447;-66
2022/07/11 11:10:55;;;;;;;;;2.33;2.33;;;;;36.00;25.22;101927.00;5037124;28;45343;-67
2022/07/11 11:13:20;;;;;;;;;4.33;4.33;;;;;36.00;25.74;101949.63;5060035;28;45983;-67
2022/07/11 11:15:52;;;;;;;;;4.00;4.00;;;;;36.22;24.96;101943.63;5043561;28;45343;-67
2022/07/11 11:18:41;;;;;;;;;2.33;2.33;;;;;36.00;25.11;101943.97;5049084;28;45463;-66
2022/07/11 11:21:06;;;;;;;;;4.00;4.00;;;;;36.11;25.51;101942.78;5043558;28;45277;-68
2022/07/11 11:23:31;;;;;;;;;3.00;3.00;;;;;36.49;24.49;101946.84;5049042;28;45329;-67
2022/07/11 11:26:13;;;;;;;;;5.00;5.00;;;;;36.41;24.53;101949.44;5048190;28;45343;-67
2022/07/11 11:28:55;;;;;;;;;1.00;1.00;;;;;36.29;24.77;101938.47;5043860;28;45446;-67
2022/07/11 11:31:20;;;;;;;;;1.67;1.67;;;;;36.65;24.26;101939.97;5038900;28;45375;-67
2022/07/11 11:33:47;;;;;;;;;1.67;1.67;;;;;36.96;24.44;101934.91;5053723;28;45419;-66